createdAt,value
2019-02-02T00:00:25.202Z,26.90
2019-02-02T00:02:53.656Z,27.00
2019-02-02T00:05:22.103Z,28.17
2019-02-02T00:07:50.519Z,27.87
2019-02-02T00:10:18.967Z,27.43
2019-02-02T00:12:47.673Z,27.00
2019-02-02T00:15:16.128Z,28.60
2019-02-02T00:17:44.564Z,28.73
2019-02-02T00:20:13.105Z,27.93
2019-02-02T00:22:41.580Z,27.53
2019-02-02T00:25:11.850Z,28.90
2019-02-02T00:27:41.740Z,27.77
2019-02-02T00:30:16.008Z,29.23
2019-02-02T00:32:44.424Z,27.77
2019-02-02T00:35:13.290Z,27.80
2019-02-02T00:37:41.802Z,28.10
2019-02-02T00:40:13.156Z,26.20
2019-02-02T00:42:41.643Z,29.73
2019-02-02T00:45:15.798Z,29.30
2019-02-02T00:47:44.374Z,29.63
2019-02-02T00:50:14.631Z,27.57
2019-02-02T00:52:43.136Z,30.87
2019-02-02T00:55:17.116Z,29.87
2019-02-02T00:57:52.911Z,29.77
2019-02-02T01:00:21.470Z,27.50
2019-02-02T01:02:49.999Z,28.80
2019-02-02T01:05:20.355Z,28.77
2019-02-02T01:07:48.943Z,30.10
2019-02-02T01:10:35.199Z,29.67
2019-02-02T01:13:04.245Z,30.20
2019-02-02T01:15:32.974Z,28.80
2019-02-02T01:18:01.509Z,28.70
2019-02-02T01:20:31.879Z,29.30
2019-02-02T01:23:00.547Z,30.37
2019-02-02T01:25:29.122Z,30.33
2019-02-02T01:28:04.994Z,29.13
2019-02-02T01:30:28.026Z,28.00
2019-02-02T01:32:56.443Z,29.83
2019-02-02T01:35:24.986Z,28.77
2019-02-02T01:37:53.527Z,29.50
2019-02-02T01:40:24.688Z,30.00
2019-02-02T01:42:53.276Z,28.77
2019-02-02T01:45:24.158Z,28.37
2019-02-02T01:47:53.020Z,29.40
2019-02-02T01:50:26.790Z,29.53
2019-02-02T01:52:55.766Z,30.63
2019-02-02T01:55:24.373Z,29.13
2019-02-02T01:57:52.870Z,28.90
2019-02-02T02:00:27.353Z,30.07
2019-02-02T02:02:55.939Z,28.83
2019-02-02T02:05:24.400Z,30.00
2019-02-02T02:07:53.377Z,29.70
2019-02-02T02:10:21.967Z,28.30
2019-02-02T02:12:50.857Z,29.53
2019-02-02T02:15:20.334Z,30.60
2019-02-02T02:17:49.135Z,31.10
2019-02-02T02:20:20.569Z,29.70
2019-02-02T02:22:50.440Z,29.70
2019-02-02T02:25:20.987Z,30.17
2019-02-02T02:27:50.261Z,29.80
2019-02-02T02:30:20.959Z,29.47
2019-02-02T02:32:49.470Z,30.03
2019-02-02T02:35:18.017Z,29.53
2019-02-02T02:37:46.619Z,30.33
2019-02-02T02:40:17.658Z,29.80
2019-02-02T02:42:46.187Z,30.77
2019-02-02T02:45:15.374Z,28.33
2019-02-02T02:47:43.934Z,29.70
2019-02-02T02:50:14.952Z,30.67
2019-02-02T02:52:43.376Z,29.90
2019-02-02T02:55:13.844Z,30.43
2019-02-02T02:57:42.414Z,30.87
2019-02-02T03:00:22.889Z,30.57
2019-02-02T03:02:51.562Z,30.40
2019-02-02T03:05:20.243Z,30.90
2019-02-02T03:07:49.847Z,29.80
2019-02-02T03:10:20.837Z,31.13
2019-02-02T03:12:49.469Z,29.43
2019-02-02T03:15:20.100Z,29.97
2019-02-02T03:17:50.108Z,30.60
2019-02-02T03:20:18.601Z,31.33
2019-02-02T03:22:47.108Z,30.43
2019-02-02T03:25:20.835Z,31.97
2019-02-02T03:27:49.288Z,30.97
2019-02-02T03:30:19.695Z,30.43
2019-02-02T03:32:48.709Z,33.00
2019-02-02T03:35:20.237Z,29.83
2019-02-02T03:37:48.821Z,32.77
2019-02-02T03:40:19.400Z,31.83
2019-02-02T03:42:47.979Z,32.10
2019-02-02T03:45:19.238Z,32.13
2019-02-02T03:47:47.676Z,29.70
2019-02-02T03:50:16.289Z,28.80
2019-02-02T03:52:45.088Z,29.80
2019-02-02T03:55:15.474Z,30.67
2019-02-02T03:57:44.024Z,31.47
2019-02-02T04:00:14.998Z,33.60
2019-02-02T04:02:43.598Z,32.77
2019-02-02T04:05:14.852Z,32.83
2019-02-02T04:07:43.281Z,32.63
2019-02-02T04:10:13.490Z,33.37
2019-02-02T04:12:41.910Z,34.53
2019-02-02T04:15:12.682Z,31.23
2019-02-02T04:17:41.725Z,30.97
2019-02-02T04:20:13.372Z,33.13
2019-02-02T04:22:41.880Z,33.67
2019-02-02T04:25:10.806Z,35.37
2019-02-02T04:27:39.297Z,31.73
2019-02-02T04:30:16.763Z,31.00
2019-02-02T04:32:45.269Z,31.27
2019-02-02T04:35:14.341Z,29.47
2019-02-02T04:37:43.261Z,32.37
2019-02-02T04:40:13.932Z,32.97
2019-02-02T04:42:42.442Z,33.80
2019-02-02T04:45:13.877Z,33.10
2019-02-02T04:47:42.311Z,35.03
2019-02-02T04:50:13.418Z,34.43
2019-02-02T04:52:42.115Z,34.30
2019-02-02T04:55:13.209Z,33.93
2019-02-02T04:57:41.619Z,35.67
2019-02-02T05:00:16.612Z,36.23
2019-02-02T05:02:45.080Z,34.90
2019-02-02T05:05:16.143Z,35.03
2019-02-02T05:07:44.663Z,35.33
2019-02-02T05:10:16.060Z,34.13
2019-02-02T05:12:44.492Z,34.93
2019-02-02T05:15:13.172Z,35.73
2019-02-02T05:17:41.604Z,35.27
2019-02-02T05:20:20.964Z,33.53
2019-02-02T05:22:49.457Z,37.20
2019-02-02T05:25:18.194Z,34.77
2019-02-02T05:27:46.731Z,36.80
2019-02-02T05:30:27.029Z,35.87
2019-02-02T05:32:55.459Z,34.53
2019-02-02T05:35:23.952Z,38.23
2019-02-02T05:37:52.541Z,36.00
2019-02-02T05:40:22.394Z,36.90
2019-02-02T05:42:51.166Z,38.37
2019-02-02T05:45:23.733Z,36.73
2019-02-02T05:47:52.308Z,37.00
2019-02-02T05:50:23.230Z,37.47
2019-02-02T05:52:52.227Z,38.97
2019-02-02T05:55:22.848Z,35.80
2019-02-02T05:57:51.438Z,37.40
2019-02-02T06:00:34.030Z,37.47
2019-02-02T06:03:02.434Z,36.67
2019-02-02T06:05:30.877Z,37.93
2019-02-02T06:07:59.324Z,37.07
2019-02-02T06:10:27.827Z,37.30
2019-02-02T06:12:56.267Z,37.03
2019-02-02T06:15:24.690Z,39.83
2019-02-02T06:17:53.114Z,37.90
2019-02-02T06:20:21.554Z,38.47
2019-02-02T06:22:49.984Z,38.47
2019-02-02T06:25:18.519Z,37.53
2019-02-02T06:27:46.942Z,41.10
2019-02-02T06:30:20.723Z,38.33
2019-02-02T06:32:49.286Z,38.37
2019-02-02T06:35:18.999Z,38.33
2019-02-02T06:37:47.504Z,36.90
2019-02-02T06:40:17.764Z,37.73
2019-02-02T06:42:46.802Z,40.37
2019-02-02T06:45:32.778Z,38.20
2019-02-02T06:48:01.403Z,38.63
2019-02-02T06:50:29.819Z,39.27
2019-02-02T06:52:59.189Z,39.30
2019-02-02T06:55:27.824Z,39.17
2019-02-02T06:57:56.331Z,38.87
2019-02-02T07:00:27.230Z,39.33
2019-02-02T07:02:56.732Z,40.30
2019-02-02T07:05:25.753Z,40.77
2019-02-02T07:07:54.283Z,40.67
2019-02-02T07:10:27.964Z,42.87
2019-02-02T07:12:56.612Z,42.13
2019-02-02T07:15:32.082Z,41.13
2019-02-02T07:18:00.496Z,43.07
2019-02-02T07:20:28.994Z,43.00
2019-02-02T07:22:57.551Z,39.57
2019-02-02T07:25:25.975Z,42.17
2019-02-02T07:27:54.845Z,43.87
2019-02-02T07:30:29.597Z,42.97
2019-02-02T07:32:55.256Z,44.50
2019-02-02T07:35:23.965Z,44.20
2019-02-02T07:37:52.453Z,43.90
2019-02-02T07:40:22.234Z,46.33
2019-02-02T07:42:51.216Z,44.50
2019-02-02T07:45:28.364Z,44.80
2019-02-02T07:47:56.848Z,41.93
2019-02-02T07:50:25.273Z,45.60
2019-02-02T07:52:53.784Z,44.37
2019-02-02T07:55:23.361Z,46.07
2019-02-02T07:57:52.226Z,45.83
2019-02-02T08:00:26.278Z,47.80
2019-02-02T08:02:54.755Z,46.53
2019-02-02T08:05:23.258Z,46.37
2019-02-02T08:07:51.962Z,46.60
2019-02-02T08:10:20.521Z,48.27
2019-02-02T08:12:49.040Z,48.37
2019-02-02T08:15:29.255Z,48.63
2019-02-02T08:17:58.709Z,46.30
2019-02-02T08:20:30.705Z,49.67
2019-02-02T08:22:59.145Z,48.00
2019-02-02T08:25:27.744Z,48.77
2019-02-02T08:27:56.309Z,48.40
2019-02-02T08:30:30.590Z,49.87
2019-02-02T08:32:58.994Z,48.13
2019-02-02T08:35:27.421Z,47.13
2019-02-02T08:37:55.935Z,50.30
2019-02-02T08:40:24.514Z,48.43
2019-02-02T08:42:52.954Z,49.40
2019-02-02T08:45:21.528Z,51.63
2019-02-02T08:47:49.998Z,50.27
2019-02-02T08:50:21.480Z,50.47
2019-02-02T08:52:49.912Z,50.10
2019-02-02T08:55:18.436Z,50.23
2019-02-02T08:57:46.908Z,52.00
2019-02-02T09:00:20.240Z,51.57
2019-02-02T09:02:48.836Z,50.63
2019-02-02T09:05:19.956Z,52.60
2019-02-02T09:07:48.360Z,50.67
2019-02-02T09:10:24.862Z,51.83
2019-02-02T09:12:53.330Z,49.40
2019-02-02T09:15:22.080Z,50.93
2019-02-02T09:17:50.542Z,52.90
2019-02-02T09:20:19.110Z,48.80
2019-02-02T09:22:48.467Z,51.87
2019-02-02T09:25:18.545Z,51.90
2019-02-02T09:27:47.443Z,48.47
2019-02-02T09:30:25.083Z,49.77
2019-02-02T09:32:53.557Z,53.43
2019-02-02T09:35:22.100Z,50.30
2019-02-02T09:37:50.600Z,52.17
2019-02-02T09:40:20.495Z,50.07
2019-02-02T09:42:49.014Z,50.23
2019-02-02T09:45:20.324Z,50.47
2019-02-02T09:47:52.595Z,50.80
2019-02-02T09:50:23.924Z,51.60
2019-02-02T09:52:52.402Z,50.90
2019-02-02T09:55:25.763Z,51.20
2019-02-02T09:57:59.742Z,49.83
2019-02-02T10:00:30.810Z,48.67
2019-02-02T10:02:59.307Z,49.87
2019-02-02T10:05:28.481Z,49.87
2019-02-02T10:07:57.066Z,50.37
2019-02-02T10:10:31.102Z,48.70
2019-02-02T10:12:59.676Z,48.47
2019-02-02T10:15:28.308Z,48.67
2019-02-02T10:17:56.960Z,50.30
2019-02-02T10:20:30.501Z,48.03
2019-02-02T10:23:00.688Z,45.67
2019-02-02T10:25:31.178Z,46.60
2019-02-02T10:28:00.068Z,49.10
2019-02-02T10:30:31.195Z,47.60
2019-02-02T10:33:00.084Z,49.20
2019-02-02T10:35:28.790Z,49.93
2019-02-02T10:37:57.309Z,50.17
2019-02-02T10:40:25.834Z,48.97
2019-02-02T10:42:54.365Z,51.07
2019-02-02T10:45:23.347Z,49.03
2019-02-02T10:47:51.850Z,48.10
2019-02-02T10:50:23.355Z,47.57
2019-02-02T10:52:51.908Z,49.10
2019-02-02T10:55:20.703Z,49.73
2019-02-02T10:57:49.147Z,50.17
2019-02-02T11:00:28.998Z,50.90
2019-02-02T11:02:57.577Z,52.30
2019-02-02T11:05:26.559Z,53.83
2019-02-02T11:07:55.370Z,51.57
2019-02-02T11:10:31.958Z,51.30
2019-02-02T11:13:00.731Z,52.73
2019-02-02T11:15:29.544Z,52.13
2019-02-02T11:17:58.161Z,55.40
2019-02-02T11:20:35.296Z,54.40
2019-02-02T11:23:03.996Z,52.00
2019-02-02T11:25:32.594Z,52.23
2019-02-02T11:28:01.057Z,53.83
2019-02-02T11:30:30.654Z,52.47
2019-02-02T11:32:59.098Z,52.27
2019-02-02T11:35:27.618Z,54.20
2019-02-02T11:37:56.077Z,54.07
2019-02-02T11:40:33.072Z,54.07
2019-02-02T11:43:01.646Z,52.07
2019-02-02T11:45:30.159Z,50.87
2019-02-02T11:47:58.650Z,50.07
2019-02-02T11:50:27.658Z,48.50
2019-02-02T11:52:56.088Z,47.60
2019-02-02T11:55:26.701Z,48.80
2019-02-02T11:57:55.203Z,48.87
2019-02-02T12:00:35.956Z,48.07
2019-02-02T12:03:04.949Z,49.50
2019-02-02T12:05:33.757Z,49.47
2019-02-02T12:08:02.306Z,49.20
2019-02-02T12:10:32.901Z,50.00
2019-02-02T12:13:01.457Z,50.93
2019-02-02T12:15:30.253Z,49.63
2019-02-02T12:17:58.782Z,49.83
2019-02-02T12:20:27.356Z,50.77
2019-02-02T12:22:55.961Z,48.73
2019-02-02T12:25:24.487Z,51.97
2019-02-02T12:27:52.977Z,49.07
2019-02-02T12:30:26.768Z,49.50
2019-02-02T12:32:55.210Z,51.77
2019-02-02T12:35:25.927Z,50.53
2019-02-02T12:37:54.947Z,52.43
2019-02-02T12:40:25.404Z,51.00
2019-02-02T12:42:53.862Z,51.10
2019-02-02T12:45:31.041Z,48.83
2019-02-02T12:47:59.567Z,51.70
2019-02-02T12:50:28.004Z,50.47
2019-02-02T12:52:56.537Z,49.07
2019-02-02T12:55:26.074Z,49.97
2019-02-02T12:57:54.636Z,50.77
2019-02-02T13:00:23.073Z,51.47
2019-02-02T13:02:51.513Z,52.40
2019-02-02T13:05:22.694Z,52.50
2019-02-02T13:07:51.204Z,51.73
2019-02-02T13:10:24.442Z,51.40
2019-02-02T13:12:52.570Z,50.83
2019-02-02T13:15:21.137Z,51.97
2019-02-02T13:17:49.634Z,51.37
2019-02-02T13:20:18.750Z,53.27
2019-02-02T13:22:47.771Z,49.47
2019-02-02T13:25:18.307Z,51.07
2019-02-02T13:27:46.760Z,51.83
2019-02-02T13:30:21.324Z,50.77
2019-02-02T13:32:50.382Z,52.03
2019-02-02T13:35:20.164Z,49.50
2019-02-02T13:37:48.607Z,51.10
2019-02-02T13:40:19.764Z,49.40
2019-02-02T13:42:48.274Z,51.20
2019-02-02T13:45:19.227Z,49.60
2019-02-02T13:47:48.168Z,51.73
2019-02-02T13:50:17.903Z,51.90
2019-02-02T13:52:47.722Z,52.20
2019-02-02T13:55:16.249Z,52.97
2019-02-02T13:57:44.765Z,50.43
2019-02-02T14:00:28.306Z,50.07
2019-02-02T14:03:02.831Z,51.90
2019-02-02T14:05:27.067Z,49.80
2019-02-02T14:07:56.346Z,54.07
2019-02-02T14:10:33.457Z,49.30
2019-02-02T14:13:01.881Z,51.07
2019-02-02T14:15:31.199Z,53.17
2019-02-02T14:17:59.764Z,52.37
2019-02-02T14:20:28.177Z,51.20
2019-02-02T14:22:56.625Z,50.97
2019-02-02T14:25:25.057Z,51.73
2019-02-02T14:27:53.577Z,52.47
2019-02-02T14:30:24.145Z,52.70
2019-02-02T14:32:54.781Z,52.67
2019-02-02T14:35:25.550Z,52.60
2019-02-02T14:37:54.027Z,52.07
2019-02-02T14:40:22.488Z,53.30
2019-02-02T14:42:51.043Z,53.60
2019-02-02T14:45:21.928Z,54.30
2019-02-02T14:47:50.431Z,52.23
2019-02-02T14:50:20.751Z,51.87
2019-02-02T14:52:50.671Z,54.53
2019-02-02T14:55:27.202Z,53.57
2019-02-02T14:57:55.774Z,49.73
2019-02-02T15:00:28.965Z,55.40
2019-02-02T15:02:57.552Z,54.83
2019-02-02T15:05:26.224Z,56.63
2019-02-02T15:07:54.671Z,55.43
2019-02-02T15:10:24.423Z,54.87
2019-02-02T15:12:52.998Z,57.73
2019-02-02T15:15:21.583Z,57.27
2019-02-02T15:17:49.998Z,57.53
2019-02-02T15:20:27.834Z,55.43
2019-02-02T15:22:56.377Z,55.93
2019-02-02T15:25:24.951Z,59.43
2019-02-02T15:27:53.455Z,57.73
2019-02-02T15:30:27.124Z,58.87
2019-02-02T15:32:55.721Z,58.90
2019-02-02T15:35:24.333Z,59.07
2019-02-02T15:37:52.815Z,61.47
2019-02-02T15:40:22.010Z,59.20
2019-02-02T15:42:50.467Z,59.43
2019-02-02T15:45:30.666Z,61.00
2019-02-02T15:47:59.123Z,58.90
2019-02-02T15:50:27.690Z,63.63
2019-02-02T15:52:56.233Z,59.20
2019-02-02T15:55:25.488Z,64.33
2019-02-02T15:57:54.011Z,62.80
2019-02-02T16:00:28.620Z,62.63
2019-02-02T16:02:57.162Z,60.50
2019-02-02T16:05:26.559Z,61.03
2019-02-02T16:07:56.135Z,64.27
2019-02-02T16:10:30.582Z,60.50
2019-02-02T16:12:59.220Z,61.83
2019-02-02T16:15:27.753Z,62.60
2019-02-02T16:17:56.133Z,62.83
2019-02-02T16:20:36.723Z,61.03
2019-02-02T16:23:05.935Z,61.50
2019-02-02T16:25:34.498Z,58.27
2019-02-02T16:28:03.026Z,59.00
2019-02-02T16:30:32.319Z,61.57
2019-02-02T16:33:00.762Z,59.47
2019-02-02T16:35:29.446Z,62.73
2019-02-02T16:37:57.886Z,62.73
2019-02-02T16:40:28.706Z,63.03
2019-02-02T16:42:57.554Z,62.83
2019-02-02T16:45:33.754Z,62.47
2019-02-02T16:48:02.262Z,61.33
2019-02-02T16:50:30.697Z,61.90
2019-02-02T16:52:59.277Z,65.30
2019-02-02T16:55:27.654Z,62.23
2019-02-02T16:57:56.116Z,62.37
2019-02-02T17:00:30.584Z,62.77
2019-02-02T17:02:59.419Z,61.13
2019-02-02T17:05:27.889Z,61.07
2019-02-02T17:07:56.493Z,63.50
2019-02-02T17:10:28.041Z,64.47
2019-02-02T17:12:56.549Z,66.47
2019-02-02T17:15:25.046Z,65.53
2019-02-02T17:17:53.576Z,66.37
2019-02-02T17:20:25.030Z,64.30
2019-02-02T17:22:53.528Z,64.90
2019-02-02T17:25:23.217Z,64.00
2019-02-02T17:27:51.845Z,65.07
2019-02-02T17:30:22.441Z,66.20
2019-02-02T17:32:52.324Z,64.10
2019-02-02T17:35:20.835Z,63.87
2019-02-02T17:37:49.355Z,65.83
2019-02-02T17:40:20.722Z,67.80
2019-02-02T17:42:49.293Z,64.37
2019-02-02T17:45:20.122Z,67.73
2019-02-02T17:47:50.160Z,67.13
2019-02-02T17:50:20.848Z,65.37
2019-02-02T17:52:49.381Z,67.43
2019-02-02T17:55:18.044Z,68.10
2019-02-02T17:57:46.971Z,66.37
2019-02-02T18:00:40.685Z,69.03
2019-02-02T18:03:09.146Z,67.67
2019-02-02T18:05:37.603Z,69.33
2019-02-02T18:08:06.183Z,72.37
2019-02-02T18:10:34.867Z,68.50
2019-02-02T18:13:03.358Z,71.30
2019-02-02T18:15:31.796Z,74.23
2019-02-02T18:18:02.399Z,70.83
2019-02-02T18:20:30.462Z,71.20
2019-02-02T18:22:58.945Z,69.33
2019-02-02T18:25:27.462Z,70.73
2019-02-02T18:27:55.919Z,72.03
2019-02-02T18:30:28.492Z,79.00
2019-02-02T18:32:57.089Z,73.97
2019-02-02T18:35:25.887Z,74.27
2019-02-02T18:37:54.402Z,72.40
2019-02-02T18:40:26.587Z,75.03
2019-02-02T18:42:55.281Z,74.63
2019-02-02T18:45:28.524Z,72.40
2019-02-02T18:47:57.157Z,74.57
2019-02-02T18:50:25.779Z,72.13
2019-02-02T18:52:56.726Z,72.40
2019-02-02T18:55:40.156Z,77.53
2019-02-02T18:58:08.741Z,76.00
2019-02-02T19:00:37.354Z,72.83
2019-02-02T19:03:06.631Z,76.60
2019-02-02T19:05:35.313Z,73.63
2019-02-02T19:08:03.952Z,76.43
2019-02-02T19:10:35.912Z,75.43
2019-02-02T19:13:05.495Z,75.00
2019-02-02T19:15:34.033Z,71.33
2019-02-02T19:18:03.371Z,77.60
2019-02-02T19:20:31.977Z,77.23
2019-02-02T19:23:00.490Z,76.30
2019-02-02T19:25:28.944Z,77.37
2019-02-02T19:27:57.471Z,74.90
2019-02-02T19:30:31.227Z,78.93
2019-02-02T19:32:59.796Z,75.63
2019-02-02T19:35:28.250Z,73.13
2019-02-02T19:37:56.815Z,73.80
2019-02-02T19:40:25.335Z,72.17
2019-02-02T19:42:54.362Z,79.10
2019-02-02T19:45:27.440Z,79.53
2019-02-02T19:47:55.863Z,76.00
2019-02-02T19:50:26.347Z,71.67
2019-02-02T19:52:54.893Z,73.83
2019-02-02T19:55:23.323Z,75.20
2019-02-02T19:57:51.746Z,74.33
2019-02-02T20:00:22.929Z,73.00
2019-02-02T20:02:51.419Z,72.27
2019-02-02T20:05:28.224Z,76.27
2019-02-02T20:07:50.716Z,72.97
2019-02-02T20:10:19.693Z,70.23
2019-02-02T20:12:48.223Z,73.67
2019-02-02T20:15:19.048Z,75.97
2019-02-02T20:17:47.563Z,69.77
2019-02-02T20:20:18.305Z,72.13
2019-02-02T20:22:46.863Z,69.07
2019-02-02T20:25:16.549Z,71.27
2019-02-02T20:27:45.157Z,72.23
2019-02-02T20:30:16.745Z,73.07
2019-02-02T20:32:45.269Z,74.13
2019-02-02T20:35:15.956Z,69.93
2019-02-02T20:37:44.595Z,73.90
2019-02-02T20:40:18.127Z,67.33
2019-02-02T20:42:46.610Z,68.20
2019-02-02T20:45:20.733Z,72.13
2019-02-02T20:47:49.173Z,72.00
2019-02-02T20:50:19.092Z,73.17
2019-02-02T20:52:48.040Z,74.33
2019-02-02T20:55:22.717Z,73.13
2019-02-02T20:57:51.731Z,72.23
2019-02-02T21:00:22.644Z,72.63
2019-02-02T21:02:51.108Z,71.57
2019-02-02T21:05:19.524Z,74.07
2019-02-02T21:07:48.010Z,79.07
2019-02-02T21:10:18.726Z,74.40
2019-02-02T21:12:47.229Z,76.10
2019-02-02T21:15:16.133Z,80.13
2019-02-02T21:17:45.671Z,81.77
2019-02-02T21:20:22.314Z,73.67
2019-02-02T21:23:00.627Z,75.57
2019-02-02T21:25:29.028Z,81.57
2019-02-02T21:27:57.482Z,80.03
2019-02-02T21:30:31.273Z,78.37
2019-02-02T21:32:59.749Z,75.90
2019-02-02T21:35:28.325Z,79.53
2019-02-02T21:37:56.926Z,79.73
2019-02-02T21:40:31.199Z,80.13
2019-02-02T21:42:59.792Z,78.90
2019-02-02T21:45:28.367Z,80.50
2019-02-02T21:47:56.911Z,80.07
2019-02-02T21:50:26.131Z,82.13
2019-02-02T21:52:56.154Z,82.67
2019-02-02T21:55:26.965Z,78.87
2019-02-02T21:57:55.685Z,79.47
2019-02-02T22:00:38.842Z,83.77
2019-02-02T22:03:07.753Z,78.27
2019-02-02T22:05:36.265Z,77.37
2019-02-02T22:08:06.099Z,77.60
2019-02-02T22:10:34.484Z,76.83
2019-02-02T22:13:02.959Z,80.73
2019-02-02T22:15:31.657Z,79.23
2019-02-02T22:18:00.100Z,78.90
2019-02-02T22:20:28.599Z,78.47
2019-02-02T22:22:57.224Z,78.07
2019-02-02T22:25:33.953Z,78.40
2019-02-02T22:28:02.405Z,80.90
2019-02-02T22:30:36.577Z,78.60
2019-02-02T22:33:05.992Z,82.93
2019-02-02T22:35:34.795Z,85.93
2019-02-02T22:38:03.775Z,81.30
2019-02-02T22:40:32.371Z,81.70
2019-02-02T22:43:00.825Z,77.30
2019-02-02T22:45:29.238Z,81.50
2019-02-02T22:47:57.697Z,80.23
2019-02-02T22:50:28.235Z,77.30
2019-02-02T22:52:56.800Z,80.70
2019-02-02T22:55:25.712Z,77.77
2019-02-02T22:57:54.909Z,79.80
2019-02-02T23:00:28.037Z,75.60
2019-02-02T23:02:57.090Z,79.67
2019-02-02T23:05:31.408Z,75.10
2019-02-02T23:08:03.972Z,77.93
2019-02-02T23:10:50.744Z,79.20
2019-02-02T23:13:25.063Z,80.33
2019-02-02T23:16:13.328Z,78.77
2019-02-02T23:18:41.885Z,78.07
2019-02-02T23:21:10.654Z,79.07
2019-02-02T23:23:39.083Z,77.27
2019-02-02T23:26:07.530Z,76.57
2019-02-02T23:28:36.096Z,75.90
2019-02-02T23:31:04.672Z,76.20
2019-02-02T23:33:33.124Z,78.27
2019-02-02T23:36:01.634Z,77.60
2019-02-02T23:38:30.068Z,79.17
2019-02-02T23:40:58.504Z,80.73
2019-02-02T23:43:26.952Z,76.77
2019-02-02T23:45:56.929Z,78.53
2019-02-02T23:48:25.931Z,76.37
2019-02-02T23:50:54.390Z,77.27
2019-02-02T23:53:22.812Z,76.37
2019-02-02T23:55:51.254Z,79.73
2019-02-02T23:58:19.701Z,76.73
